sensor_id;sensor_type;location;lat;lon;timestamp;pressure;altitude;pressure_sealevel;temperature;humidity
59274;BME280;45044;41.572;24.730;2022-08-07T00:00:05;91215.47;;;16.35;100.00
59274;BME280;45044;41.572;24.730;2022-08-07T00:02:33;91211.28;;;16.17;100.00
59274;BME280;45044;41.572;24.730;2022-08-07T00:05:06;91217.59;;;16.24;100.00
59274;BME280;45044;41.572;24.730;2022-08-07T00:07:33;91213.91;;;16.17;100.00
59274;BME280;45044;41.572;24.730;2022-08-07T00:10:07;91210.13;;;16.19;100.00
59274;BME280;45044;41.572;24.730;2022-08-07T00:12:55;91211.84;;;16.09;100.00
59274;BME280;45044;41.572;24.730;2022-08-07T00:15:26;91218.09;;;16.19;100.00
59274;BME280;45044;41.572;24.730;2022-08-07T00:18:27;91218.56;;;16.13;100.00
59274;BME280;45044;41.572;24.730;2022-08-07T00:20:59;91219.56;;;16.20;100.00
59274;BME280;45044;41.572;24.730;2022-08-07T00:23:32;91212.59;;;16.09;100.00
59274;BME280;45044;41.572;24.730;2022-08-07T00:26:01;91213.25;;;16.13;100.00
59274;BME280;45044;41.572;24.730;2022-08-07T00:28:46;91207.63;;;16.11;100.00
59274;BME280;45044;41.572;24.730;2022-08-07T00:31:22;91207.13;;;16.16;100.00
59274;BME280;45044;41.572;24.730;2022-08-07T00:34:06;91202.38;;;15.87;100.00
59274;BME280;45044;41.572;24.730;2022-08-07T00:36:34;91202.81;;;16.06;100.00
59274;BME280;45044;41.572;24.730;2022-08-07T00:39:04;91206.59;;;16.05;100.00
59274;BME280;45044;41.572;24.730;2022-08-07T00:41:31;91199.94;;;15.97;100.00
59274;BME280;45044;41.572;24.730;2022-08-07T00:44:10;91197.16;;;16.04;100.00
59274;BME280;45044;41.572;24.730;2022-08-07T00:46:40;91183.22;;;16.00;100.00
59274;BME280;45044;41.572;24.730;2022-08-07T00:49:09;91191.19;;;16.00;100.00
59274;BME280;45044;41.572;24.730;2022-08-07T00:51:50;91192.47;;;15.91;100.00
59274;BME280;45044;41.572;24.730;2022-08-07T00:54:23;91193.81;;;15.79;100.00
59274;BME280;45044;41.572;24.730;2022-08-07T00:56:50;91188.78;;;15.85;100.00
59274;BME280;45044;41.572;24.730;2022-08-07T00:59:18;91190.94;;;15.90;100.00
59274;BME280;45044;41.572;24.730;2022-08-07T01:02:04;91189.88;;;15.88;100.00
59274;BME280;45044;41.572;24.730;2022-08-07T01:04:52;91184.31;;;15.62;100.00
59274;BME280;45044;41.572;24.730;2022-08-07T01:07:24;91193.03;;;15.62;100.00
59274;BME280;45044;41.572;24.730;2022-08-07T01:09:53;91200.63;;;15.60;100.00
59274;BME280;45044;41.572;24.730;2022-08-07T01:12:37;91195.59;;;15.45;100.00
59274;BME280;45044;41.572;24.730;2022-08-07T01:15:21;91192.31;;;15.58;100.00
59274;BME280;45044;41.572;24.730;2022-08-07T01:18:08;91195.19;;;15.67;100.00
59274;BME280;45044;41.572;24.730;2022-08-07T01:20:41;91190.09;;;15.77;100.00
59274;BME280;45044;41.572;24.730;2022-08-07T01:23:23;91192.25;;;15.82;100.00
59274;BME280;45044;41.572;24.730;2022-08-07T01:26:03;91183.69;;;15.74;100.00
59274;BME280;45044;41.572;24.730;2022-08-07T01:28:30;91190.91;;;15.74;100.00
59274;BME280;45044;41.572;24.730;2022-08-07T01:31:07;91184.53;;;15.71;100.00
59274;BME280;45044;41.572;24.730;2022-08-07T01:33:41;91184.44;;;15.34;100.00
59274;BME280;45044;41.572;24.730;2022-08-07T01:36:23;91183.06;;;15.26;100.00
59274;BME280;45044;41.572;24.730;2022-08-07T01:38:59;91188.13;;;15.40;100.00
59274;BME280;45044;41.572;24.730;2022-08-07T01:41:29;91182.53;;;15.35;100.00
59274;BME280;45044;41.572;24.730;2022-08-07T01:43:58;91176.22;;;15.28;100.00
59274;BME280;45044;41.572;24.730;2022-08-07T01:46:27;91179.06;;;15.38;100.00
59274;BME280;45044;41.572;24.730;2022-08-07T01:48:58;91181.41;;;15.36;100.00
59274;BME280;45044;41.572;24.730;2022-08-07T01:51:25;91157.94;;;15.14;100.00
59274;BME280;45044;41.572;24.730;2022-08-07T01:54:13;91173.72;;;15.41;100.00
59274;BME280;45044;41.572;24.730;2022-08-07T01:57:09;91174.34;;;15.49;100.00
59274;BME280;45044;41.572;24.730;2022-08-07T01:59:56;91167.41;;;15.55;100.00
59274;BME280;45044;41.572;24.730;2022-08-07T02:02:35;91179.16;;;15.54;100.00
59274;BME280;45044;41.572;24.730;2022-08-07T02:05:40;91163.13;;;15.41;100.00
59274;BME280;45044;41.572;24.730;2022-08-07T02:08:26;91163.25;;;15.34;100.00
59274;BME280;45044;41.572;24.730;2022-08-07T02:10:55;91167.06;;;15.33;100.00
59274;BME280;45044;41.572;24.730;2022-08-07T02:13:28;91160.88;;;15.40;100.00
59274;BME280;45044;41.572;24.730;2022-08-07T02:16:21;91159.53;;;15.31;100.00
59274;BME280;45044;41.572;24.730;2022-08-07T02:19:01;91155.66;;;15.36;100.00
59274;BME280;45044;41.572;24.730;2022-08-07T02:21:50;91154.78;;;15.43;100.00
59274;BME280;45044;41.572;24.730;2022-08-07T02:24:23;91156.19;;;15.48;100.00
59274;BME280;45044;41.572;24.730;2022-08-07T02:26:58;91158.97;;;15.40;100.00
59274;BME280;45044;41.572;24.730;2022-08-07T02:29:29;91163.59;;;15.36;100.00
59274;BME280;45044;41.572;24.730;2022-08-07T02:31:58;91154.84;;;15.39;100.00
59274;BME280;45044;41.572;24.730;2022-08-07T02:34:26;91150.00;;;15.14;100.00
59274;BME280;45044;41.572;24.730;2022-08-07T02:36:55;91158.91;;;15.24;100.00
59274;BME280;45044;41.572;24.730;2022-08-07T02:39:25;91154.69;;;15.06;100.00
59274;BME280;45044;41.572;24.730;2022-08-07T02:42:10;91163.25;;;15.14;100.00
59274;BME280;45044;41.572;24.730;2022-08-07T02:44:43;91156.72;;;15.18;100.00
59274;BME280;45044;41.572;24.730;2022-08-07T02:47:15;91160.13;;;15.19;100.00
59274;BME280;45044;41.572;24.730;2022-08-07T02:49:49;91170.72;;;15.19;100.00
59274;BME280;45044;41.572;24.730;2022-08-07T02:52:29;91165.47;;;15.15;100.00
59274;BME280;45044;41.572;24.730;2022-08-07T02:55:04;91166.56;;;15.18;100.00
59274;BME280;45044;41.572;24.730;2022-08-07T02:57:54;91163.50;;;15.19;100.00
59274;BME280;45044;41.572;24.730;2022-08-07T03:00:27;91162.91;;;14.88;100.00
59274;BME280;45044;41.572;24.730;2022-08-07T03:02:55;91164.50;;;15.05;100.00
59274;BME280;45044;41.572;24.730;2022-08-07T03:05:23;91163.19;;;14.93;100.00
59274;BME280;45044;41.572;24.730;2022-08-07T03:07:51;91168.38;;;15.01;100.00
59274;BME280;45044;41.572;24.730;2022-08-07T03:10:36;91171.25;;;15.10;100.00
59274;BME280;45044;41.572;24.730;2022-08-07T03:13:13;91165.25;;;15.06;100.00
59274;BME280;45044;41.572;24.730;2022-08-07T03:15:44;91170.56;;;15.06;100.00
59274;BME280;45044;41.572;24.730;2022-08-07T03:18:21;91182.88;;;14.92;100.00
59274;BME280;45044;41.572;24.730;2022-08-07T03:21:01;91175.56;;;15.00;100.00
59274;BME280;45044;41.572;24.730;2022-08-07T03:23:29;91175.16;;;15.02;100.00
59274;BME280;45044;41.572;24.730;2022-08-07T03:26:18;91172.50;;;15.02;100.00
59274;BME280;45044;41.572;24.730;2022-08-07T03:28:53;91163.69;;;15.08;100.00
59274;BME280;45044;41.572;24.730;2022-08-07T03:31:21;91170.03;;;15.15;100.00
59274;BME280;45044;41.572;24.730;2022-08-07T03:34:01;91169.75;;;15.09;100.00
59274;BME280;45044;41.572;24.730;2022-08-07T03:36:29;91178.31;;;15.17;100.00
59274;BME280;45044;41.572;24.730;2022-08-07T03:39:01;91182.38;;;15.21;100.00
59274;BME280;45044;41.572;24.730;2022-08-07T03:41:31;91171.19;;;15.14;100.00
59274;BME280;45044;41.572;24.730;2022-08-07T03:44:13;91179.25;;;15.27;100.00
59274;BME280;45044;41.572;24.730;2022-08-07T03:46:41;91187.06;;;15.34;100.00
59274;BME280;45044;41.572;24.730;2022-08-07T03:49:28;91189.00;;;15.33;100.00
59274;BME280;45044;41.572;24.730;2022-08-07T03:51:57;91178.63;;;15.43;100.00
59274;BME280;45044;41.572;24.730;2022-08-07T03:54:27;91186.09;;;15.48;100.00
59274;BME280;45044;41.572;24.730;2022-08-07T03:57:15;91178.88;;;15.49;100.00
59274;BME280;45044;41.572;24.730;2022-08-07T04:00:03;91184.25;;;15.45;100.00
59274;BME280;45044;41.572;24.730;2022-08-07T04:02:31;91188.84;;;15.61;100.00
59274;BME280;45044;41.572;24.730;2022-08-07T04:04:58;91186.13;;;15.65;100.00
59274;BME280;45044;41.572;24.730;2022-08-07T04:07:25;91184.72;;;15.80;100.00
59274;BME280;45044;41.572;24.730;2022-08-07T04:10:08;91186.47;;;15.87;100.00
59274;BME280;45044;41.572;24.730;2022-08-07T04:12:45;91184.75;;;16.01;100.00
59274;BME280;45044;41.572;24.730;2022-08-07T04:15:14;91186.91;;;16.06;100.00
59274;BME280;45044;41.572;24.730;2022-08-07T04:17:43;91190.22;;;16.10;100.00
59274;BME280;45044;41.572;24.730;2022-08-07T04:20:30;91189.75;;;16.15;100.00
59274;BME280;45044;41.572;24.730;2022-08-07T04:23:01;91191.50;;;16.22;100.00
59274;BME280;45044;41.572;24.730;2022-08-07T04:25:32;91197.06;;;16.28;100.00
59274;BME280;45044;41.572;24.730;2022-08-07T04:28:07;91187.09;;;16.32;100.00
59274;BME280;45044;41.572;24.730;2022-08-07T04:30:41;91188.78;;;16.43;100.00
59274;BME280;45044;41.572;24.730;2022-08-07T04:33:24;91194.34;;;16.48;100.00
59274;BME280;45044;41.572;24.730;2022-08-07T04:35:53;91187.78;;;16.36;100.00
59274;BME280;45044;41.572;24.730;2022-08-07T04:38:24;91178.03;;;16.50;100.00
59274;BME280;45044;41.572;24.730;2022-08-07T04:40:51;91195.59;;;16.60;100.00
59274;BME280;45044;41.572;24.730;2022-08-07T04:43:26;91187.06;;;16.69;100.00
59274;BME280;45044;41.572;24.730;2022-08-07T04:51:45;91197.75;;;16.82;100.00
59274;BME280;45044;41.572;24.730;2022-08-07T04:54:27;91199.31;;;16.63;100.00
59274;BME280;45044;41.572;24.730;2022-08-07T05:00:07;91208.47;;;16.95;100.00
59274;BME280;45044;41.572;24.730;2022-08-07T05:02:53;91203.09;;;17.45;100.00
59274;BME280;45044;41.572;24.730;2022-08-07T05:05:29;91200.97;;;17.70;100.00
59274;BME280;45044;41.572;24.730;2022-08-07T05:08:33;91197.09;;;19.98;100.00
59274;BME280;45044;41.572;24.730;2022-08-07T05:11:30;91205.63;;;22.05;100.00
59274;BME280;45044;41.572;24.730;2022-08-07T05:14:34;91207.81;;;22.16;100.00
59274;BME280;45044;41.572;24.730;2022-08-07T05:17:24;91201.47;;;21.48;100.00
59274;BME280;45044;41.572;24.730;2022-08-07T05:20:15;91207.69;;;20.66;100.00
59274;BME280;45044;41.572;24.730;2022-08-07T05:22:48;91201.63;;;20.75;100.00
59274;BME280;45044;41.572;24.730;2022-08-07T05:25:19;91210.41;;;20.43;100.00
59274;BME280;45044;41.572;24.730;2022-08-07T05:28:03;91203.50;;;22.81;100.00
59274;BME280;45044;41.572;24.730;2022-08-07T05:30:48;91214.59;;;25.14;82.10
59274;BME280;45044;41.572;24.730;2022-08-07T05:33:18;91210.72;;;26.51;72.26
59274;BME280;45044;41.572;24.730;2022-08-07T05:35:48;91221.44;;;26.78;69.69
59274;BME280;45044;41.572;24.730;2022-08-07T05:38:19;91208.66;;;25.66;74.35
59274;BME280;45044;41.572;24.730;2022-08-07T05:41:09;91209.66;;;27.08;63.54
59274;BME280;45044;41.572;24.730;2022-08-07T05:43:47;91221.00;;;27.84;62.65
59274;BME280;45044;41.572;24.730;2022-08-07T05:46:36;91220.66;;;28.49;57.97
59274;BME280;45044;41.572;24.730;2022-08-07T05:49:05;91222.13;;;28.96;55.66
59274;BME280;45044;41.572;24.730;2022-08-07T05:51:42;91222.16;;;28.62;55.56
59274;BME280;45044;41.572;24.730;2022-08-07T05:54:15;91228.00;;;29.23;52.29
59274;BME280;45044;41.572;24.730;2022-08-07T05:57:05;91226.31;;;28.63;51.39
59274;BME280;45044;41.572;24.730;2022-08-07T05:59:37;91223.56;;;28.17;53.52
59274;BME280;45044;41.572;24.730;2022-08-07T06:02:25;91224.94;;;29.56;51.79
59274;BME280;45044;41.572;24.730;2022-08-07T06:04:58;91222.66;;;29.83;50.57
59274;BME280;45044;41.572;24.730;2022-08-07T06:07:30;91230.19;;;31.11;45.86
59274;BME280;45044;41.572;24.730;2022-08-07T06:10:17;91216.63;;;30.50;43.66
59274;BME280;45044;41.572;24.730;2022-08-07T06:12:45;91224.53;;;30.84;45.28
59274;BME280;45044;41.572;24.730;2022-08-07T06:15:14;91237.69;;;30.99;43.38
59274;BME280;45044;41.572;24.730;2022-08-07T06:17:42;91228.72;;;31.10;44.21
59274;BME280;45044;41.572;24.730;2022-08-07T06:20:24;91235.53;;;30.19;44.75
59274;BME280;45044;41.572;24.730;2022-08-07T06:23:11;91218.09;;;30.51;45.64
59274;BME280;45044;41.572;24.730;2022-08-07T06:25:58;91231.50;;;31.99;40.12
59274;BME280;45044;41.572;24.730;2022-08-07T06:28:26;91248.59;;;32.32;39.17
59274;BME280;45044;41.572;24.730;2022-08-07T06:30:54;91233.81;;;31.44;42.29
59274;BME280;45044;41.572;24.730;2022-08-07T06:33:29;91232.38;;;32.07;39.73
59274;BME280;45044;41.572;24.730;2022-08-07T06:35:58;91234.84;;;32.44;37.95
59274;BME280;45044;41.572;24.730;2022-08-07T06:38:41;91240.59;;;32.40;39.50
59274;BME280;45044;41.572;24.730;2022-08-07T06:41:56;91241.91;;;31.95;38.40
59274;BME280;45044;41.572;24.730;2022-08-07T06:44:29;91227.03;;;31.07;39.28
59274;BME280;45044;41.572;24.730;2022-08-07T06:47:02;91236.03;;;31.71;38.33
59274;BME280;45044;41.572;24.730;2022-08-07T06:49:38;91219.19;;;30.67;41.19
59274;BME280;45044;41.572;24.730;2022-08-07T06:52:27;91223.41;;;31.49;38.87
59274;BME280;45044;41.572;24.730;2022-08-07T06:55:03;91226.91;;;31.68;38.49
59274;BME280;45044;41.572;24.730;2022-08-07T06:57:52;91225.78;;;33.34;37.50
59274;BME280;45044;41.572;24.730;2022-08-07T07:00:28;91225.88;;;31.72;39.16
59274;BME280;45044;41.572;24.730;2022-08-07T07:03:03;91235.38;;;30.78;41.05
59274;BME280;45044;41.572;24.730;2022-08-07T07:05:39;91236.38;;;29.14;43.23
59274;BME280;45044;41.572;24.730;2022-08-07T07:08:28;91237.06;;;29.37;46.43
59274;BME280;45044;41.572;24.730;2022-08-07T07:10:58;91222.66;;;30.31;42.14
59274;BME280;45044;41.572;24.730;2022-08-07T07:13:38;91236.97;;;31.74;38.87
59274;BME280;45044;41.572;24.730;2022-08-07T07:16:26;91232.97;;;31.05;40.63
59274;BME280;45044;41.572;24.730;2022-08-07T07:19:02;91232.63;;;30.11;40.34
59274;BME280;45044;41.572;24.730;2022-08-07T07:21:50;91225.56;;;31.06;40.45
59274;BME280;45044;41.572;24.730;2022-08-07T07:24:38;91227.47;;;31.61;40.94
59274;BME280;45044;41.572;24.730;2022-08-07T07:27:27;91239.41;;;29.81;43.16
59274;BME280;45044;41.572;24.730;2022-08-07T07:30:15;91229.31;;;31.28;40.37
59274;BME280;45044;41.572;24.730;2022-08-07T07:33:04;91244.81;;;31.58;40.35
59274;BME280;45044;41.572;24.730;2022-08-07T07:35:34;91229.94;;;30.84;40.03
59274;BME280;45044;41.572;24.730;2022-08-07T07:38:22;91241.25;;;32.66;36.31
59274;BME280;45044;41.572;24.730;2022-08-07T07:40:56;91240.44;;;32.32;38.02
59274;BME280;45044;41.572;24.730;2022-08-07T07:43:29;91244.84;;;30.66;40.81
59274;BME280;45044;41.572;24.730;2022-08-07T07:46:17;91256.63;;;31.05;40.57
59274;BME280;45044;41.572;24.730;2022-08-07T07:49:06;91253.25;;;30.99;41.56
59274;BME280;45044;41.572;24.730;2022-08-07T07:51:55;91240.13;;;31.03;39.16
59274;BME280;45044;41.572;24.730;2022-08-07T07:54:26;91247.25;;;32.06;38.16
59274;BME280;45044;41.572;24.730;2022-08-07T07:56:56;91246.22;;;33.81;35.60
59274;BME280;45044;41.572;24.730;2022-08-07T07:59:23;91245.53;;;34.29;34.62
59274;BME280;45044;41.572;24.730;2022-08-07T08:02:12;91245.88;;;32.84;35.56
59274;BME280;45044;41.572;24.730;2022-08-07T08:05:03;91237.22;;;32.14;37.10
59274;BME280;45044;41.572;24.730;2022-08-07T08:07:37;91237.31;;;30.53;40.08
59274;BME280;45044;41.572;24.730;2022-08-07T08:10:18;91239.72;;;33.17;36.20
59274;BME280;45044;41.572;24.730;2022-08-07T08:13:05;91239.41;;;33.20;34.69
59274;BME280;45044;41.572;24.730;2022-08-07T08:15:42;91239.44;;;33.01;35.32
59274;BME280;45044;41.572;24.730;2022-08-07T08:18:34;91258.34;;;33.26;34.60
59274;BME280;45044;41.572;24.730;2022-08-07T08:21:03;91249.00;;;32.75;34.81
59274;BME280;45044;41.572;24.730;2022-08-07T08:23:34;91236.56;;;33.26;33.64
59274;BME280;45044;41.572;24.730;2022-08-07T08:26:20;91243.66;;;31.73;37.01
59274;BME280;45044;41.572;24.730;2022-08-07T08:29:10;91259.28;;;30.80;35.86
59274;BME280;45044;41.572;24.730;2022-08-07T08:31:40;91246.69;;;29.33;39.57
59274;BME280;45044;41.572;24.730;2022-08-07T08:34:28;91242.88;;;29.70;43.21
59274;BME280;45044;41.572;24.730;2022-08-07T08:36:56;91252.28;;;30.17;41.61
59274;BME280;45044;41.572;24.730;2022-08-07T08:39:26;91245.00;;;28.66;45.77
59274;BME280;45044;41.572;24.730;2022-08-07T08:45:06;91251.53;;;30.22;41.36
59274;BME280;45044;41.572;24.730;2022-08-07T08:47:51;91250.22;;;30.41;41.88
59274;BME280;45044;41.572;24.730;2022-08-07T08:50:25;91249.28;;;30.21;41.89
59274;BME280;45044;41.572;24.730;2022-08-07T08:53:21;91257.97;;;30.56;43.13
59274;BME280;45044;41.572;24.730;2022-08-07T08:56:05;91248.06;;;30.28;42.98
59274;BME280;45044;41.572;24.730;2022-08-07T09:01:35;91230.44;;;29.27;43.19
59274;BME280;45044;41.572;24.730;2022-08-07T09:13:08;91257.22;;;28.21;47.71
59274;BME280;45044;41.572;24.730;2022-08-07T09:21:43;91257.66;;;26.45;55.56
59274;BME280;45044;41.572;24.730;2022-08-07T09:24:59;91253.09;;;26.51;61.38
59274;BME280;45044;41.572;24.730;2022-08-07T09:28:05;91250.31;;;27.48;54.24
59274;BME280;45044;41.572;24.730;2022-08-07T09:31:19;91250.81;;;28.13;49.04
59274;BME280;45044;41.572;24.730;2022-08-07T09:34:06;91233.81;;;28.01;51.96
59274;BME280;45044;41.572;24.730;2022-08-07T09:36:39;91238.13;;;28.77;52.26
59274;BME280;45044;41.572;24.730;2022-08-07T09:39:23;91233.69;;;28.62;49.07
59274;BME280;45044;41.572;24.730;2022-08-07T09:45:29;91226.56;;;28.65;50.49
59274;BME280;45044;41.572;24.730;2022-08-07T09:48:35;91218.16;;;29.26;47.30
59274;BME280;45044;41.572;24.730;2022-08-07T09:54:40;91246.47;;;28.96;48.00
59274;BME280;45044;41.572;24.730;2022-08-07T10:03:06;91270.22;;;26.48;57.73
59274;BME280;45044;41.572;24.730;2022-08-07T10:14:48;91275.09;;;24.58;76.13
59274;BME280;45044;41.572;24.730;2022-08-07T10:38:50;91238.22;;;26.61;65.30
59274;BME280;45044;41.572;24.730;2022-08-07T10:41:26;91269.25;;;27.15;62.85
59274;BME280;45044;41.572;24.730;2022-08-07T10:44:32;91267.16;;;27.75;59.72
59274;BME280;45044;41.572;24.730;2022-08-07T10:47:46;91265.69;;;27.80;56.80
59274;BME280;45044;41.572;24.730;2022-08-07T10:50:25;91270.41;;;27.96;58.93
59274;BME280;45044;41.572;24.730;2022-08-07T10:55:51;91252.34;;;29.17;53.61
59274;BME280;45044;41.572;24.730;2022-08-07T10:58:30;91254.97;;;29.58;49.20
59274;BME280;45044;41.572;24.730;2022-08-07T11:07:49;91261.84;;;28.09;54.71
59274;BME280;45044;41.572;24.730;2022-08-07T11:10:56;91266.16;;;27.29;54.05
59274;BME280;45044;41.572;24.730;2022-08-07T11:13:46;91265.53;;;26.22;62.58
59274;BME280;45044;41.572;24.730;2022-08-07T11:16:52;91269.88;;;26.40;62.69
59274;BME280;45044;41.572;24.730;2022-08-07T11:19:46;91283.47;;;26.04;63.27
59274;BME280;45044;41.572;24.730;2022-08-07T11:28:38;91277.72;;;25.54;70.03
59274;BME280;45044;41.572;24.730;2022-08-07T11:31:33;91275.28;;;25.71;70.75
59274;BME280;45044;41.572;24.730;2022-08-07T11:34:11;91275.66;;;26.06;70.65
59274;BME280;45044;41.572;24.730;2022-08-07T11:36:53;91265.44;;;26.63;68.91
59274;BME280;45044;41.572;24.730;2022-08-07T11:39:29;91270.31;;;27.24;63.67
59274;BME280;45044;41.572;24.730;2022-08-07T11:42:43;91262.22;;;27.24;58.89
59274;BME280;45044;41.572;24.730;2022-08-07T11:48:41;91255.84;;;27.27;63.06
59274;BME280;45044;41.572;24.730;2022-08-07T12:00:15;91264.72;;;27.33;58.26
59274;BME280;45044;41.572;24.730;2022-08-07T12:03:14;91253.50;;;27.52;55.84
59274;BME280;45044;41.572;24.730;2022-08-07T12:06:51;91254.25;;;27.53;55.74
59274;BME280;45044;41.572;24.730;2022-08-07T12:17:23;91249.41;;;25.38;68.24
59274;BME280;45044;41.572;24.730;2022-08-07T12:20:05;91260.31;;;25.91;73.65
59274;BME280;45044;41.572;24.730;2022-08-07T12:25:40;91253.22;;;27.00;60.82
59274;BME280;45044;41.572;24.730;2022-08-07T12:28:53;91256.63;;;27.89;63.87
59274;BME280;45044;41.572;24.730;2022-08-07T12:31:48;91252.47;;;27.99;62.00
59274;BME280;45044;41.572;24.730;2022-08-07T12:34:30;91228.88;;;27.77;56.28
59274;BME280;45044;41.572;24.730;2022-08-07T12:36:58;91246.94;;;28.43;56.52
59274;BME280;45044;41.572;24.730;2022-08-07T12:39:28;91222.06;;;28.16;56.58
59274;BME280;45044;41.572;24.730;2022-08-07T12:42:19;91233.81;;;28.01;55.18
59274;BME280;45044;41.572;24.730;2022-08-07T12:44:53;91240.91;;;27.87;52.21
59274;BME280;45044;41.572;24.730;2022-08-07T12:47:32;91228.94;;;28.05;51.96
59274;BME280;45044;41.572;24.730;2022-08-07T12:50:28;91232.31;;;27.89;51.90
59274;BME280;45044;41.572;24.730;2022-08-07T12:53:24;91237.88;;;27.68;50.12
59274;BME280;45044;41.572;24.730;2022-08-07T12:59:03;91229.28;;;27.63;50.46
59274;BME280;45044;41.572;24.730;2022-08-07T13:05:02;91226.72;;;27.37;56.18
59274;BME280;45044;41.572;24.730;2022-08-07T13:10:50;91209.56;;;27.40;50.92
59274;BME280;45044;41.572;24.730;2022-08-07T13:13:33;91200.53;;;27.55;52.43
59274;BME280;45044;41.572;24.730;2022-08-07T13:22:23;91202.19;;;27.35;51.83
59274;BME280;45044;41.572;24.730;2022-08-07T13:25:09;91191.88;;;27.39;52.44
59274;BME280;45044;41.572;24.730;2022-08-07T13:28:09;91205.59;;;27.35;52.53
59274;BME280;45044;41.572;24.730;2022-08-07T13:31:52;91190.09;;;27.85;52.85
59274;BME280;45044;41.572;24.730;2022-08-07T13:34:43;91197.97;;;27.95;55.07
59274;BME280;45044;41.572;24.730;2022-08-07T13:43:11;91184.22;;;27.93;51.61
59274;BME280;45044;41.572;24.730;2022-08-07T13:45:44;91186.22;;;28.21;53.26
59274;BME280;45044;41.572;24.730;2022-08-07T13:48:32;91181.78;;;28.01;49.26
59274;BME280;45044;41.572;24.730;2022-08-07T13:51:05;91183.75;;;27.94;51.14
59274;BME280;45044;41.572;24.730;2022-08-07T13:53:57;91156.53;;;28.38;54.57
59274;BME280;45044;41.572;24.730;2022-08-07T13:56:30;91165.63;;;28.52;50.78
59274;BME280;45044;41.572;24.730;2022-08-07T13:59:10;91182.06;;;28.37;50.37
59274;BME280;45044;41.572;24.730;2022-08-07T14:01:58;91186.53;;;28.46;46.61
59274;BME280;45044;41.572;24.730;2022-08-07T14:07:19;91194.38;;;28.55;48.25
59274;BME280;45044;41.572;24.730;2022-08-07T14:09:52;91189.69;;;28.50;49.39
59274;BME280;45044;41.572;24.730;2022-08-07T14:12:56;91197.81;;;28.73;49.53
59274;BME280;45044;41.572;24.730;2022-08-07T14:15:38;91216.53;;;27.70;49.49
59274;BME280;45044;41.572;24.730;2022-08-07T14:18:20;91224.25;;;26.63;61.17
59274;BME280;45044;41.572;24.730;2022-08-07T14:22:02;91252.63;;;26.05;60.49
59274;BME280;45044;41.572;24.730;2022-08-07T14:24:29;91288.66;;;25.30;75.43
59274;BME280;45044;41.572;24.730;2022-08-07T14:27:03;91307.34;;;24.58;88.04
59274;BME280;45044;41.572;24.730;2022-08-07T14:29:57;91320.69;;;23.48;100.00
59274;BME280;45044;41.572;24.730;2022-08-07T14:32:42;91334.06;;;22.43;100.00
59274;BME280;45044;41.572;24.730;2022-08-07T14:35:30;91343.88;;;22.08;100.00
59274;BME280;45044;41.572;24.730;2022-08-07T14:38:13;91343.63;;;21.05;100.00
59274;BME280;45044;41.572;24.730;2022-08-07T14:41:07;91347.97;;;20.89;100.00
59274;BME280;45044;41.572;24.730;2022-08-07T14:43:42;91331.81;;;20.93;100.00
59274;BME280;45044;41.572;24.730;2022-08-07T14:46:27;91324.91;;;21.05;100.00
59274;BME280;45044;41.572;24.730;2022-08-07T14:49:00;91320.53;;;20.89;100.00
59274;BME280;45044;41.572;24.730;2022-08-07T14:51:48;91313.63;;;21.01;100.00
59274;BME280;45044;41.572;24.730;2022-08-07T14:54:37;91301.53;;;21.18;100.00
59274;BME280;45044;41.572;24.730;2022-08-07T14:57:13;91288.00;;;21.13;100.00
59274;BME280;45044;41.572;24.730;2022-08-07T15:00:01;91297.47;;;21.14;100.00
59274;BME280;45044;41.572;24.730;2022-08-07T15:02:32;91290.56;;;21.45;100.00
59274;BME280;45044;41.572;24.730;2022-08-07T15:05:03;91287.63;;;21.42;100.00
59274;BME280;45044;41.572;24.730;2022-08-07T15:07:47;91268.47;;;20.62;100.00
59274;BME280;45044;41.572;24.730;2022-08-07T15:10:24;91280.59;;;20.85;100.00
59274;BME280;45044;41.572;24.730;2022-08-07T15:12:58;91295.00;;;20.88;100.00
59274;BME280;45044;41.572;24.730;2022-08-07T15:15:52;91289.00;;;21.06;100.00
59274;BME280;45044;41.572;24.730;2022-08-07T15:18:50;91280.97;;;20.97;100.00
59274;BME280;45044;41.572;24.730;2022-08-07T15:21:28;91276.84;;;21.14;100.00
59274;BME280;45044;41.572;24.730;2022-08-07T15:24:22;91282.09;;;21.27;100.00
59274;BME280;45044;41.572;24.730;2022-08-07T15:27:14;91274.22;;;21.24;100.00
59274;BME280;45044;41.572;24.730;2022-08-07T15:29:47;91271.56;;;21.33;100.00
59274;BME280;45044;41.572;24.730;2022-08-07T15:32:54;91270.78;;;21.23;100.00
59274;BME280;45044;41.572;24.730;2022-08-07T15:35:48;91271.59;;;20.60;100.00
59274;BME280;45044;41.572;24.730;2022-08-07T15:38:37;91271.13;;;20.62;100.00
59274;BME280;45044;41.572;24.730;2022-08-07T15:41:29;91267.66;;;20.42;100.00
59274;BME280;45044;41.572;24.730;2022-08-07T15:44:19;91265.53;;;20.37;100.00
59274;BME280;45044;41.572;24.730;2022-08-07T15:47:02;91271.84;;;20.53;100.00
59274;BME280;45044;41.572;24.730;2022-08-07T15:49:34;91272.19;;;20.64;100.00
59274;BME280;45044;41.572;24.730;2022-08-07T15:52:24;91263.00;;;20.33;100.00
59274;BME280;45044;41.572;24.730;2022-08-07T15:55:00;91255.28;;;20.35;100.00
59274;BME280;45044;41.572;24.730;2022-08-07T15:57:31;91270.63;;;20.44;100.00
59274;BME280;45044;41.572;24.730;2022-08-07T16:00:14;91263.16;;;20.39;100.00
59274;BME280;45044;41.572;24.730;2022-08-07T16:03:02;91266.47;;;19.98;100.00
59274;BME280;45044;41.572;24.730;2022-08-07T16:05:31;91264.47;;;20.12;100.00
59274;BME280;45044;41.572;24.730;2022-08-07T16:08:06;91262.84;;;19.92;100.00
59274;BME280;45044;41.572;24.730;2022-08-07T16:11:04;91266.50;;;19.85;100.00